Time;durP1;ratioP1;P1;durP2;ratioP2;P2;SDS_P1;SDS_P2;PMS_P1;PMS_P2;Temp;Humidity;BMP_temperature;BMP_pressure;BME280_temperature;BME280_humidity;BME280_pressure;Samples;Min_cycle;Max_cycle;Signal;HPM_P1;HPM_P2
2022/11/28 00:01:42;;;;;;;15.17;10.93;;;;;;;8.65;75.97;100261.81;5044009;28;20680;-53
2022/11/28 00:04:11;;;;;;;13.07;10.37;;;;;;;8.64;76.65;100256.66;5048319;28;21047;-52
2022/11/28 00:06:40;;;;;;;12.90;9.67;;;;;;;8.64;76.23;100249.84;5047507;28;20199;-52
2022/11/28 00:09:08;;;;;;;11.77;9.40;;;;;;;8.60;75.79;100249.66;5037522;28;20207;-52
2022/11/28 00:11:35;;;;;;;14.60;9.70;;;;;;;8.49;76.79;100246.72;5032169;28;20220;-52
2022/11/28 00:14:01;;;;;;;12.37;8.60;;;;;;;8.49;75.32;100249.28;5035706;28;20200;-53
2022/11/28 00:16:28;;;;;;;12.60;9.53;;;;;;;8.42;74.13;100249.88;5045440;28;20196;-53
2022/11/28 00:18:55;;;;;;;14.63;8.80;;;;;;;8.31;74.09;100246.06;5035088;28;20254;-52
2022/11/28 00:21:24;;;;;;;11.63;9.10;;;;;;;8.24;73.93;100247.47;5032059;28;20203;-52
2022/11/28 00:23:51;;;;;;;12.47;9.43;;;;;;;8.11;75.10;100239.28;5032228;28;20272;-52
2022/11/28 00:26:20;;;;;;;14.40;10.83;;;;;;;8.03;76.34;100245.81;5043985;28;20199;-53
2022/11/28 00:28:47;;;;;;;13.07;10.67;;;;;;;8.08;76.91;100241.72;5033509;28;20204;-53
2022/11/28 00:31:14;;;;;;;15.00;12.68;;;;;;;8.21;77.01;100244.81;5038890;28;20451;-53
2022/11/28 00:33:41;;;;;;;15.97;11.20;;;;;;;8.20;76.36;100230.28;5051588;28;20192;-53
2022/11/28 00:36:09;;;;;;;14.23;11.47;;;;;;;8.38;76.72;100250.59;5052276;28;20280;-53
2022/11/28 00:38:37;;;;;;;14.13;10.53;;;;;;;8.42;76.91;100246.44;5051323;28;20188;-55
2022/11/28 00:41:06;;;;;;;16.63;11.30;;;;;;;8.17;77.21;100213.91;5042812;28;20230;-53
2022/11/28 00:43:34;;;;;;;14.57;10.13;;;;;;;8.00;76.54;100194.50;5056108;28;20191;-52
2022/11/28 00:46:01;;;;;;;12.70;10.43;;;;;;;8.12;78.07;100239.34;5057155;28;20254;-52
2022/11/28 00:48:28;;;;;;;15.00;10.93;;;;;;;8.02;78.23;100233.84;5043864;28;20560;-52
2022/11/28 00:50:55;;;;;;;16.03;12.37;;;;;;;7.96;80.04;100236.16;5057956;28;20598;-55
2022/11/28 00:53:22;;;;;;;13.47;10.60;;;;;;;7.89;79.97;100231.59;5042200;28;20602;-53
2022/11/28 00:55:51;;;;;;;14.03;10.77;;;;;;;7.91;80.24;100232.56;5050533;28;20252;-54
2022/11/28 00:58:17;;;;;;;15.10;11.43;;;;;;;7.87;80.21;100231.56;5046080;28;20192;-52
2022/11/28 01:00:44;;;;;;;13.93;10.10;;;;;;;7.78;81.36;100232.88;5044289;28;20651;-54
2022/11/28 01:03:11;;;;;;;16.77;10.90;;;;;;;7.70;81.09;100223.22;5044484;28;20189;-52
2022/11/28 01:05:42;;;;;;;13.17;10.20;;;;;;;7.68;82.29;100216.31;5049152;28;20256;-53
2022/11/28 01:08:08;;;;;;;17.37;9.97;;;;;;;7.81;82.29;100222.75;5047337;28;20192;-52
2022/11/28 01:10:39;;;;;;;14.30;10.00;;;;;;;7.80;82.48;100223.59;5037959;28;20226;-52
2022/11/28 01:13:08;;;;;;;14.73;10.10;;;;;;;7.71;82.52;100224.09;5037868;28;20187;-52
2022/11/28 01:15:35;;;;;;;15.03;10.67;;;;;;;7.67;82.43;100224.78;5038383;28;20329;-53
2022/11/28 01:18:02;;;;;;;15.07;10.33;;;;;;;7.62;83.23;100222.06;5038486;28;20200;-52
2022/11/28 01:20:29;;;;;;;12.20;9.47;;;;;;;7.43;83.33;100222.13;5046602;28;20194;-52
2022/11/28 01:22:56;;;;;;;13.10;10.27;;;;;;;7.51;83.68;100217.31;5065925;28;20245;-53
2022/11/28 01:25:22;;;;;;;14.23;11.60;;;;;;;7.48;84.87;100219.75;5077088;28;20920;-53
2022/11/28 01:27:49;;;;;;;14.63;10.87;;;;;;;7.52;85.42;100219.06;5078130;28;20649;-53
2022/11/28 01:30:18;;;;;;;15.87;10.30;;;;;;;7.52;85.40;100217.41;5065496;28;20233;-54
2022/11/28 01:32:45;;;;;;;14.33;10.57;;;;;;;7.33;85.53;100219.16;5050362;28;20196;-53
2022/11/28 01:35:12;;;;;;;12.30;9.23;;;;;;;7.35;85.62;100220.09;5056691;28;20218;-53
2022/11/28 01:37:38;;;;;;;14.63;10.43;;;;;;;7.30;85.64;100219.03;5056549;28;20461;-53
2022/11/28 01:40:07;;;;;;;13.10;9.53;;;;;;;7.17;86.06;100193.78;5060202;28;20197;-53
2022/11/28 01:42:34;;;;;;;13.20;10.43;;;;;;;7.29;86.39;100217.28;5076845;28;20196;-53
2022/11/28 01:45:06;;;;;;;14.10;10.40;;;;;;;7.18;86.92;100221.94;5078112;28;20570;-52
2022/11/28 01:47:35;;;;;;;14.17;9.27;;;;;;;7.12;86.92;100211.47;5078339;28;20189;-52
2022/11/28 01:50:04;;;;;;;14.30;9.20;;;;;;;7.13;87.54;100210.66;5078020;28;20190;-52
2022/11/28 01:52:31;;;;;;;13.03;9.77;;;;;;;6.99;87.71;100207.53;5076350;28;20186;-53
2022/11/28 01:55:01;;;;;;;13.23;9.77;;;;;;;6.99;88.47;100205.00;5075117;28;20566;-53
2022/11/28 01:57:29;;;;;;;11.83;9.30;;;;;;;6.96;88.66;100206.53;5070886;28;20544;-52
2022/11/28 02:00:01;;;;;;;12.03;9.03;;;;;;;6.95;89.17;100207.38;5074497;28;20197;-52
2022/11/28 02:02:36;;;;;;;14.33;9.50;;;;;;;6.88;90.43;100202.78;5075039;28;20206;-52
2022/11/28 02:05:04;;;;;;;13.07;8.97;;;;;;;6.71;89.71;100168.88;5074331;28;20194;-53
2022/11/28 02:07:32;;;;;;;14.47;9.57;;;;;;;6.94;90.10;100193.72;5074304;28;20191;-52
2022/11/28 02:10:00;;;;;;;14.03;10.37;;;;;;;6.95;89.69;100195.44;5074209;28;20188;-52
2022/11/28 02:12:39;;;;;;;17.10;9.83;;;;;;;6.94;89.43;100200.50;5074506;28;20617;-52
2022/11/28 02:15:33;;;;;;;13.03;10.57;;;;;;;6.96;89.43;100181.88;5074583;28;20565;-52
2022/11/28 02:18:22;;;;;;;17.42;10.65;;;;;;;6.97;89.88;100192.97;5074018;28;20429;-52
2022/11/28 02:21:17;;;;;;;13.13;10.23;;;;;;;6.94;89.96;100186.06;5074643;28;20194;-52
2022/11/28 02:24:15;;;;;;;14.23;9.43;;;;;;;7.02;90.72;100194.03;5074363;28;20190;-52
2022/11/28 02:27:18;;;;;;;13.77;9.80;;;;;;;7.08;90.38;100189.16;5075039;28;20261;-52
2022/11/28 02:30:08;;;;;;;13.50;9.97;;;;;;;6.99;90.88;100184.56;5074163;28;20254;-52
2022/11/28 02:32:52;;;;;;;12.17;8.90;;;;;;;7.02;91.14;100183.81;5074075;28;20250;-52
2022/11/28 02:35:24;;;;;;;16.13;10.40;;;;;;;6.94;90.78;100185.19;5074447;28;20235;-52
2022/11/28 02:38:01;;;;;;;14.60;10.20;;;;;;;6.80;91.30;100170.94;5074024;28;20620;-53
2022/11/28 02:40:36;;;;;;;15.10;10.77;;;;;;;7.03;91.28;100186.41;5074206;28;20221;-52
2022/11/28 02:43:10;;;;;;;11.70;9.37;;;;;;;6.93;91.13;100184.28;5074440;28;20201;-52
2022/11/28 02:45:42;;;;;;;17.77;11.10;;;;;;;6.97;91.00;100190.41;5073894;28;20632;-53
2022/11/28 02:48:15;;;;;;;15.77;11.10;;;;;;;6.98;91.69;100190.47;5073860;28;20191;-52
2022/11/28 02:50:50;;;;;;;13.83;11.13;;;;;;;6.81;91.92;100191.44;5073833;28;20218;-52
2022/11/28 02:53:22;;;;;;;15.17;10.27;;;;;;;6.94;92.50;100190.28;5073690;28;20240;-53
2022/11/28 02:55:51;;;;;;;17.67;11.83;;;;;;;6.96;91.80;100184.44;5073784;28;20197;-52
2022/11/28 02:58:18;;;;;;;18.63;11.50;;;;;;;6.97;91.28;100188.75;5073563;28;20193;-52
2022/11/28 03:00:47;;;;;;;15.00;10.87;;;;;;;7.00;91.39;100193.09;5073287;28;20819;-52
2022/11/28 03:03:35;;;;;;;16.27;11.67;;;;;;;6.89;92.22;100191.78;5067999;28;20198;-52
2022/11/28 03:06:11;;;;;;;15.70;11.17;;;;;;;6.85;92.34;100187.34;5053839;28;20202;-52
2022/11/28 03:08:55;;;;;;;16.50;11.20;;;;;;;6.92;91.81;100194.47;5053856;28;20309;-53
2022/11/28 03:11:32;;;;;;;16.53;10.47;;;;;;;6.75;92.11;100195.44;5072117;28;20768;-52
2022/11/28 03:14:09;;;;;;;16.73;13.60;;;;;;;6.82;92.23;100194.88;5057546;28;20937;-54
2022/11/28 03:16:45;;;;;;;17.93;12.20;;;;;;;6.93;91.46;100194.50;5032965;28;20197;-52
2022/11/28 03:19:20;;;;;;;15.60;10.40;;;;;;;6.83;90.19;100192.41;5033001;28;20207;-53
2022/11/28 03:21:55;;;;;;;14.87;11.33;;;;;;;6.88;90.89;100190.03;5033021;28;20285;-53
2022/11/28 03:24:27;;;;;;;13.57;10.67;;;;;;;6.87;90.18;100183.16;5033046;28;20676;-52
2022/11/28 03:27:01;;;;;;;18.83;14.15;;;;;;;6.84;90.32;100183.91;5032484;28;20449;-52
2022/11/28 03:29:35;;;;;;;15.53;11.70;;;;;;;6.79;90.47;100184.50;5033568;28;20617;-53
2022/11/28 03:32:06;;;;;;;17.00;12.57;;;;;;;6.69;90.27;100187.50;5033143;28;20229;-53
2022/11/28 03:34:43;;;;;;;18.40;11.60;;;;;;;6.73;90.27;100185.13;5032767;28;20224;-53
2022/11/28 03:37:14;;;;;;;18.77;12.87;;;;;;;6.76;89.92;100185.25;5032730;28;20195;-52
2022/11/28 03:39:45;;;;;;;16.80;12.07;;;;;;;6.81;90.49;100193.13;5033579;28;20567;-53
2022/11/28 03:42:17;;;;;;;19.90;12.57;;;;;;;6.82;90.25;100187.19;5032669;28;20204;-52
2022/11/28 03:44:49;;;;;;;16.47;11.80;;;;;;;6.83;90.33;100191.50;5033027;28;20250;-52
2022/11/28 03:47:16;;;;;;;17.03;10.80;;;;;;;6.85;90.32;100192.44;5032768;28;20190;-53
2022/11/28 03:49:50;;;;;;;14.73;10.80;;;;;;;6.73;89.70;100186.84;5032543;28;20214;-53
2022/11/28 03:52:25;;;;;;;15.93;11.33;;;;;;;6.67;89.93;100189.13;5032344;28;20219;-52
2022/11/28 03:54:56;;;;;;;15.50;11.80;;;;;;;6.74;90.11;100192.00;5032318;28;20196;-52
2022/11/28 03:57:33;;;;;;;13.07;10.37;;;;;;;6.80;89.50;100192.25;5032766;28;20206;-52
2022/11/28 04:00:03;;;;;;;13.93;9.90;;;;;;;6.75;89.48;100196.31;5032584;28;20187;-54
2022/11/28 04:02:34;;;;;;;14.80;10.60;;;;;;;6.84;89.28;100193.28;5051758;28;20230;-53
2022/11/28 04:05:06;;;;;;;14.13;10.80;;;;;;;6.80;89.03;100174.38;5052094;28;20192;-52
2022/11/28 04:07:41;;;;;;;15.23;12.25;;;;;;;6.97;90.14;100191.28;5052176;28;20430;-52
2022/11/28 04:10:15;;;;;;;13.10;10.20;;;;;;;7.04;89.19;100197.50;5052751;28;20194;-53
2022/11/28 04:12:52;;;;;;;13.40;10.40;;;;;;;7.02;89.12;100199.13;5051964;28;20620;-53
2022/11/28 04:15:26;;;;;;;13.90;10.53;;;;;;;7.01;90.08;100202.47;5051815;28;20199;-52
2022/11/28 04:17:59;;;;;;;14.37;10.90;;;;;;;6.91;90.54;100208.91;5052582;28;20562;-53
2022/11/28 04:20:33;;;;;;;13.27;10.60;;;;;;;6.99;89.89;100210.09;5052106;28;20190;-52
2022/11/28 04:23:06;;;;;;;14.95;12.95;;;;;;;7.00;90.93;100193.09;5051137;28;20439;-53
2022/11/28 04:25:37;;;;;;;15.00;11.53;;;;;;;7.01;91.21;100212.69;5053055;28;20188;-54
2022/11/28 04:28:08;;;;;;;18.13;11.57;;;;;;;7.16;92.12;100218.47;5052690;28;20186;-53
2022/11/28 04:30:38;;;;;;;16.77;11.27;;;;;;;7.22;92.45;100217.84;5052492;28;20230;-53
2022/11/28 04:33:09;;;;;;;15.57;10.90;;;;;;;7.17;90.82;100217.63;5052101;28;20227;-52
2022/11/28 04:35:41;;;;;;;15.00;12.10;;;;;;;7.12;89.30;100211.47;5052266;28;20264;-53
2022/11/28 04:38:12;;;;;;;14.97;11.70;;;;;;;7.12;89.32;100216.56;5051871;28;20633;-53
2022/11/28 04:40:44;;;;;;;14.57;11.77;;;;;;;7.10;89.41;100215.66;5051741;28;20197;-53
2022/11/28 04:43:18;;;;;;;15.33;11.40;;;;;;;7.03;89.82;100206.00;5051844;28;20198;-53
2022/11/28 04:45:50;;;;;;;12.67;10.37;;;;;;;7.08;89.36;100222.38;5052087;28;20201;-52
2022/11/28 04:48:17;;;;;;;16.03;11.90;;;;;;;7.08;88.74;100218.16;5052064;28;20202;-53
2022/11/28 04:50:51;;;;;;;14.73;11.70;;;;;;;7.14;89.23;100217.53;5052009;28;20198;-53
2022/11/28 04:53:24;;;;;;;11.23;9.50;;;;;;;7.11;90.58;100209.75;5051689;28;20203;-53
2022/11/28 04:55:56;;;;;;;12.10;9.17;;;;;;;7.13;89.85;100221.78;5069917;28;20202;-57
2022/11/28 04:58:30;;;;;;;12.57;8.87;;;;;;;7.10;88.37;100225.88;5043168;28;20718;-54
2022/11/28 05:00:58;;;;;;;10.67;8.60;;;;;;;7.13;86.99;100226.00;5038857;28;20198;-53
2022/11/28 05:03:27;;;;;;;9.47;8.13;;;;;;;6.99;86.69;100191.34;5060069;28;20218;-54
2022/11/28 05:05:56;;;;;;;11.43;8.67;;;;;;;7.13;87.20;100223.44;5064158;28;20192;-53
2022/11/28 05:08:22;;;;;;;9.93;7.87;;;;;;;7.16;87.73;100221.03;5071905;28;20201;-53
2022/11/28 05:10:49;;;;;;;11.10;8.87;;;;;;;7.11;86.95;100223.38;5071694;28;20189;-53
2022/11/28 05:13:16;;;;;;;12.20;8.97;;;;;;;7.02;88.95;100206.81;5071608;28;20219;-53
2022/11/28 05:15:43;;;;;;;11.67;8.50;;;;;;;7.10;88.78;100224.19;5071549;28;20190;-53
2022/11/28 05:18:10;;;;;;;11.77;10.25;;;;;;;7.27;87.59;100232.56;5055031;28;20810;-53
2022/11/28 05:20:37;;;;;;;13.23;10.27;;;;;;;7.29;87.67;100230.94;5051712;28;20654;-53
2022/11/28 05:23:06;;;;;;;10.30;8.93;;;;;;;7.28;87.28;100224.06;5051641;28;20290;-53
2022/11/28 05:25:33;;;;;;;13.90;10.00;;;;;;;7.31;88.06;100220.75;5051635;28;20194;-53
2022/11/28 05:28:00;;;;;;;11.77;8.97;;;;;;;7.31;86.67;100215.63;5052102;28;20723;-52
2022/11/28 05:30:26;;;;;;;12.53;9.20;;;;;;;7.29;86.93;100219.81;5055138;28;20194;-53
2022/11/28 05:32:53;;;;;;;12.23;9.07;;;;;;;7.31;87.16;100220.75;5055202;28;20218;-54
2022/11/28 05:35:20;;;;;;;12.87;10.47;;;;;;;7.34;87.17;100216.66;5055050;28;20283;-54
2022/11/28 05:37:47;;;;;;;14.83;11.77;;;;;;;7.38;88.38;100215.97;5055076;28;20196;-53
2022/11/28 05:40:15;;;;;;;17.77;12.20;;;;;;;7.33;88.61;100212.38;5055076;28;20184;-53
2022/11/28 05:42:42;;;;;;;15.03;10.67;;;;;;;7.32;89.07;100223.38;5055089;28;20274;-54
2022/11/28 05:45:09;;;;;;;13.63;11.17;;;;;;;7.34;89.09;100229.44;5054955;28;20187;-54
2022/11/28 05:47:36;;;;;;;15.18;11.27;;;;;;;7.32;89.35;100220.84;5067669;28;20502;-53
2022/11/28 05:50:03;;;;;;;17.10;11.70;;;;;;;7.32;88.94;100230.19;5074469;28;20612;-53
2022/11/28 05:52:31;;;;;;;16.90;11.47;;;;;;;7.26;89.46;100225.69;5074741;28;20217;-52
2022/11/28 05:54:58;;;;;;;14.67;11.17;;;;;;;7.31;89.78;100226.75;5074989;28;20225;-53
2022/11/28 05:57:28;;;;;;;16.43;11.63;;;;;;;7.26;89.75;100220.56;5074496;28;20609;-54
2022/11/28 05:59:56;;;;;;;16.13;11.93;;;;;;;7.29;89.94;100218.16;5074395;28;20225;-53
2022/11/28 06:02:23;;;;;;;15.90;10.90;;;;;;;7.29;90.39;100230.03;5074412;28;20662;-52
2022/11/28 06:04:50;;;;;;;16.47;11.90;;;;;;;7.28;90.94;100220.66;5074910;28;20218;-53
2022/11/28 06:07:17;;;;;;;17.30;12.40;;;;;;;7.27;90.74;100221.47;5074343;28;20195;-53
2022/11/28 06:09:44;;;;;;;18.23;11.93;;;;;;;7.21;91.04;100223.75;5074637;28;20202;-54
2022/11/28 06:12:11;;;;;;;16.83;12.10;;;;;;;7.21;90.93;100223.75;5060339;28;20217;-54
2022/11/28 06:14:39;;;;;;;16.50;12.17;;;;;;;7.20;91.36;100233.09;5042870;28;20203;-54
2022/11/28 06:17:06;;;;;;;17.13;11.93;;;;;;;7.25;92.07;100230.75;5034074;28;20287;-54
2022/11/28 06:19:33;;;;;;;18.13;12.87;;;;;;;7.32;92.00;100235.28;5033915;28;20242;-53
2022/11/28 06:22:00;;;;;;;14.20;10.53;;;;;;;7.33;91.73;100239.59;5033964;28;20560;-55
2022/11/28 06:24:26;;;;;;;14.80;11.40;;;;;;;7.26;91.74;100241.03;5033729;28;20219;-53
2022/11/28 06:26:53;;;;;;;13.33;10.47;;;;;;;7.24;91.69;100236.66;5034502;28;20193;-53
2022/11/28 06:29:20;;;;;;;13.60;10.63;;;;;;;7.01;91.97;100185.47;5034059;28;20195;-53
2022/11/28 06:31:48;;;;;;;17.30;13.23;;;;;;;7.28;92.50;100236.00;5068098;28;20571;-52
2022/11/28 06:34:15;;;;;;;13.13;10.57;;;;;;;7.22;92.09;100233.19;5073723;28;20236;-52
2022/11/28 06:36:43;;;;;;;16.00;11.73;;;;;;;7.24;92.36;100229.88;5067726;28;20244;-53
2022/11/28 06:39:12;;;;;;;14.40;11.00;;;;;;;7.18;92.25;100219.41;5052331;28;20247;-54
2022/11/28 06:41:39;;;;;;;14.30;11.27;;;;;;;7.25;93.26;100231.59;5051071;28;20199;-53
2022/11/28 06:44:06;;;;;;;18.13;11.47;;;;;;;7.30;93.58;100242.91;5051621;28;20196;-52
2022/11/28 06:46:33;;;;;;;16.77;11.60;;;;;;;7.29;93.75;100240.28;5052181;28;20194;-52
2022/11/28 06:49:01;;;;;;;17.20;11.67;;;;;;;7.30;94.17;100236.91;5052714;28;20186;-55
2022/11/28 06:51:28;;;;;;;14.57;11.23;;;;;;;7.16;94.03;100223.56;5052308;28;20210;-54
2022/11/28 06:53:55;;;;;;;13.53;10.77;;;;;;;7.22;94.00;100235.72;5052420;28;20249;-53
2022/11/28 06:56:22;;;;;;;12.80;9.90;;;;;;;7.14;93.49;100235.44;5052811;28;20187;-52
2022/11/28 06:58:54;;;;;;;15.47;10.50;;;;;;;7.10;93.01;100229.31;5053036;28;20553;-52
2022/11/28 07:01:23;;;;;;;15.70;10.73;;;;;;;7.05;93.07;100235.03;5053080;28;20192;-52
2022/11/28 07:03:50;;;;;;;12.70;10.60;;;;;;;7.03;93.50;100232.41;5053273;28;20200;-52
2022/11/28 07:06:19;;;;;;;14.43;10.43;;;;;;;7.03;93.64;100236.66;5052805;28;20184;-52
2022/11/28 07:08:46;;;;;;;15.97;10.90;;;;;;;7.01;93.24;100228.03;5052868;28;20221;-52
2022/11/28 07:11:15;;;;;;;16.37;11.43;;;;;;;6.79;93.21;100189.63;5052876;28;20251;-52
2022/11/28 07:13:42;;;;;;;18.43;11.20;;;;;;;7.08;93.83;100233.50;5052916;28;20247;-52
2022/11/28 07:16:13;;;;;;;16.13;11.50;;;;;;;7.05;92.70;100233.34;5053020;28;20657;-52
2022/11/28 07:18:40;;;;;;;14.83;10.97;;;;;;;7.04;92.37;100230.72;5049857;28;20247;-53
2022/11/28 07:21:07;;;;;;;17.13;12.40;;;;;;;7.05;92.45;100224.81;5050179;28;20626;-52
2022/11/28 07:23:35;;;;;;;15.90;12.40;;;;;;;6.99;91.97;100229.66;5053059;28;20195;-53
2022/11/28 07:26:04;;;;;;;14.73;11.43;;;;;;;6.95;91.26;100228.66;5052748;28;20221;-52
2022/11/28 07:28:31;;;;;;;17.00;12.27;;;;;;;6.90;91.36;100225.03;5052564;28;20188;-52
2022/11/28 07:31:00;;;;;;;12.63;10.50;;;;;;;6.67;90.97;100189.13;5042746;28;20246;-52
2022/11/28 07:33:28;;;;;;;13.30;9.60;;;;;;;6.79;91.18;100217.72;5046425;28;20300;-54
2022/11/28 07:35:54;;;;;;;13.37;9.73;;;;;;;6.83;91.15;100217.06;5041868;28;20666;-53
2022/11/28 07:38:21;;;;;;;13.57;9.97;;;;;;;6.76;89.96;100225.25;5058481;28;20200;-53
2022/11/28 07:40:49;;;;;;;13.03;10.47;;;;;;;6.79;90.81;100220.28;5072560;28;20373;-52
2022/11/28 07:43:17;;;;;;;13.50;10.27;;;;;;;6.80;90.57;100217.81;5072510;28;20250;-53
2022/11/28 07:45:43;;;;;;;13.73;11.00;;;;;;;6.77;91.47;100221.91;5072482;28;20593;-53
2022/11/28 07:48:10;;;;;;;13.57;10.57;;;;;;;6.63;91.64;100177.91;5072493;28;20661;-53
2022/11/28 07:50:38;;;;;;;11.43;9.93;;;;;;;6.96;91.59;100224.41;5071503;28;20198;-53
2022/11/28 07:53:05;;;;;;;12.57;10.13;;;;;;;6.98;90.20;100216.00;5072047;28;20225;-53
2022/11/28 07:55:35;;;;;;;12.80;10.60;;;;;;;7.08;90.95;100215.59;5072235;28;20186;-52
2022/11/28 07:58:04;;;;;;;12.20;10.47;;;;;;;7.21;91.16;100216.97;5072135;28;20187;-53
2022/11/28 08:00:31;;;;;;;14.23;10.83;;;;;;;7.27;90.96;100222.34;5072215;28;20244;-53
2022/11/28 08:02:58;;;;;;;12.97;9.87;;;;;;;7.32;90.16;100217.41;5052318;28;20210;-53
2022/11/28 08:05:24;;;;;;;11.90;9.53;;;;;;;7.20;89.04;100209.25;5060834;28;20566;-53
2022/11/28 08:07:51;;;;;;;12.73;10.20;;;;;;;7.18;89.16;100209.16;5050424;28;20202;-53
2022/11/28 08:10:19;;;;;;;11.57;8.40;;;;;;;7.17;89.12;100212.53;5031856;28;20211;-53
2022/11/28 08:12:45;;;;;;;10.90;8.90;;;;;;;7.13;88.65;100208.13;5032089;28;20666;-53
2022/11/28 08:15:14;;;;;;;9.73;8.33;;;;;;;7.08;87.89;100201.94;5031807;28;20609;-54
2022/11/28 08:17:41;;;;;;;11.37;9.50;;;;;;;6.95;87.82;100181.81;5031746;28;20197;-53
2022/11/28 08:20:09;;;;;;;11.10;9.80;;;;;;;7.01;88.41;100200.81;5032135;28;20187;-54
2022/11/28 08:22:35;;;;;;;11.83;9.07;;;;;;;7.19;88.30;100204.94;5039878;28;20186;-54
2022/11/28 08:25:02;;;;;;;11.97;9.37;;;;;;;7.22;88.02;100207.63;5059560;28;20680;-53
2022/11/28 08:27:29;;;;;;;10.87;8.60;;;;;;;7.32;88.28;100208.06;5072004;28;20242;-54
2022/11/28 08:29:56;;;;;;;11.83;9.07;;;;;;;7.38;87.82;100199.75;5072037;28;20191;-54
2022/11/28 08:32:24;;;;;;;13.07;8.97;;;;;;;7.14;86.71;100182.59;5051073;28;20221;-55
2022/11/28 08:34:51;;;;;;;12.18;10.32;;;;;;;7.37;87.18;100209.09;5046738;28;20458;-54
2022/11/28 08:37:20;;;;;;;9.33;8.37;;;;;;;7.32;86.19;100210.59;5050846;28;20210;-55
2022/11/28 08:39:46;;;;;;;9.37;8.23;;;;;;;7.41;86.73;100210.09;5046441;28;20194;-54
2022/11/28 08:42:13;;;;;;;11.97;8.33;;;;;;;7.45;86.55;100202.59;5049014;28;20653;-54
2022/11/28 08:44:40;;;;;;;8.90;7.90;;;;;;;7.45;86.97;100207.72;5052102;28;20195;-54
2022/11/28 08:47:07;;;;;;;10.53;8.83;;;;;;;7.46;85.85;100201.81;5052173;28;20665;-54
2022/11/28 08:49:38;;;;;;;10.63;7.93;;;;;;;7.47;86.16;100202.69;5047592;28;20662;-54
2022/11/28 08:52:06;;;;;;;9.97;7.93;;;;;;;7.34;85.79;100174.88;5042783;28;20235;-54
2022/11/28 08:54:33;;;;;;;10.57;8.57;;;;;;;7.49;87.00;100191.72;5051292;28;20192;-54
2022/11/28 08:57:01;;;;;;;10.43;9.23;;;;;;;7.58;86.88;100193.75;5043012;28;20214;-55
2022/11/28 08:59:28;;;;;;;11.37;9.53;;;;;;;7.60;86.29;100182.78;5044915;28;20664;-54
2022/11/28 09:01:55;;;;;;;11.40;9.43;;;;;;;7.63;86.78;100182.91;5063214;28;20256;-54
2022/11/28 09:04:22;;;;;;;10.37;9.23;;;;;;;7.66;87.39;100179.59;5070999;28;20290;-54
2022/11/28 09:06:51;;;;;;;10.57;8.73;;;;;;;7.63;86.58;100182.03;5075517;28;20225;-54
2022/11/28 09:09:18;;;;;;;8.97;8.07;;;;;;;7.57;85.48;100174.97;5075329;28;20652;-54
2022/11/28 09:11:45;;;;;;;12.93;8.80;;;;;;;7.41;85.64;100167.53;5074774;28;20294;-55
2022/11/28 09:14:12;;;;;;;9.70;8.57;;;;;;;7.44;86.48;100169.34;5047323;28;20711;-54
2022/11/28 09:16:39;;;;;;;12.40;9.80;;;;;;;7.40;86.81;100170.00;5053007;28;20675;-53
2022/11/28 09:19:08;;;;;;;10.77;8.50;;;;;;;7.34;87.59;100162.09;5052852;28;20199;-54
2022/11/28 09:21:35;;;;;;;9.77;8.40;;;;;;;7.34;87.30;100156.97;5054985;28;20190;-53
2022/11/28 09:24:04;;;;;;;11.63;9.70;;;;;;;7.23;87.60;100133.56;5054898;28;20189;-53
2022/11/28 09:26:32;;;;;;;11.03;9.17;;;;;;;7.38;86.46;100159.72;5052233;28;20198;-53
2022/11/28 09:28:59;;;;;;;10.73;9.20;;;;;;;7.35;86.65;100157.06;5054132;28;20224;-55
2022/11/28 09:31:26;;;;;;;11.03;9.37;;;;;;;7.36;86.82;100150.25;5057080;28;20205;-53
2022/11/28 09:33:54;;;;;;;12.40;9.30;;;;;;;7.29;86.71;100126.13;5054583;28;20266;-53
2022/11/28 09:36:27;;;;;;;14.53;10.13;;;;;;;7.38;86.54;100152.06;5048658;28;20195;-54
2022/11/28 09:38:54;;;;;;;11.53;9.50;;;;;;;7.40;86.28;100147.88;5054303;28;20192;-55
2022/11/28 09:41:39;;;;;;;14.73;10.43;;;;;;;7.52;87.66;100140.69;5051484;28;20273;-54
2022/11/28 09:44:14;;;;;;;11.57;9.60;;;;;;;7.53;87.26;100128.75;5052255;28;20538;-54
2022/11/28 09:46:42;;;;;;;11.23;9.77;;;;;;;7.57;87.36;100125.50;5054442;28;20209;-54
2022/11/28 09:49:22;;;;;;;11.33;10.03;;;;;;;7.64;87.42;100125.81;5054004;28;20646;-56
2022/11/28 09:51:53;;;;;;;12.23;10.23;;;;;;;7.71;86.54;100116.69;5052293;28;20188;-54
2022/11/28 09:54:27;;;;;;;10.63;9.50;;;;;;;7.65;86.09;100119.88;5053948;28;20612;-55
2022/11/28 09:56:58;;;;;;;9.77;8.77;;;;;;;7.66;85.39;100121.59;5051713;28;20190;-56
2022/11/28 09:59:27;;;;;;;11.97;9.87;;;;;;;7.71;86.70;100107.34;5053427;28;20583;-54
2022/11/28 10:02:04;;;;;;;10.77;9.67;;;;;;;7.72;87.04;100119.28;5054009;28;20188;-55
2022/11/28 10:04:40;;;;;;;10.90;9.53;;;;;;;7.65;86.98;100114.78;5052618;28;20199;-54
2022/11/28 10:07:20;;;;;;;10.40;9.23;;;;;;;7.61;86.16;100102.66;5071875;28;20350;-55
2022/11/28 10:09:58;;;;;;;12.20;10.90;;;;;;;7.72;86.66;100108.19;5074378;28;20217;-54
2022/11/28 10:12:39;;;;;;;11.43;10.23;;;;;;;7.76;86.98;100111.72;5073838;28;20189;-54
2022/11/28 10:15:29;;;;;;;12.13;8.93;;;;;;;7.70;85.57;100082.56;5073757;28;20267;-54
2022/11/28 10:18:09;;;;;;;10.43;9.33;;;;;;;7.90;86.74;100097.75;5067588;28;20232;-53
2022/11/28 10:20:39;;;;;;;11.77;9.90;;;;;;;8.03;86.35;100095.69;5074336;28;20187;-54
2022/11/28 10:23:15;;;;;;;10.83;9.00;;;;;;;8.10;85.30;100095.09;5073890;28;20252;-54
2022/11/28 10:25:47;;;;;;;12.17;9.60;;;;;;;7.70;84.25;100035.66;5073942;28;20194;-54
2022/11/28 10:28:19;;;;;;;10.17;9.07;;;;;;;7.86;84.70;100072.88;5074307;28;20540;-54
2022/11/28 10:30:51;;;;;;;10.43;9.33;;;;;;;7.96;84.79;100080.09;5074421;28;20186;-54
2022/11/28 10:33:24;;;;;;;9.43;8.40;;;;;;;8.02;84.30;100085.44;5073579;28;20234;-53
2022/11/28 10:35:54;;;;;;;11.20;9.93;;;;;;;8.03;83.99;100082.91;5073589;28;20434;-54
2022/11/28 10:38:24;;;;;;;12.23;10.17;;;;;;;8.03;84.61;100071.78;5074312;28;20541;-54
2022/11/28 10:40:58;;;;;;;10.77;9.37;;;;;;;8.08;85.58;100072.81;5073656;28;20189;-54
2022/11/28 10:43:38;;;;;;;10.40;9.03;;;;;;;8.23;85.48;100075.94;5073942;28;20236;-54
2022/11/28 10:46:21;;;;;;;9.20;8.23;;;;;;;8.25;83.67;100071.72;5074061;28;20554;-54
2022/11/28 10:48:55;;;;;;;10.50;9.40;;;;;;;8.24;83.08;100070.00;5062566;28;20343;-54
2022/11/28 10:51:34;;;;;;;11.73;10.27;;;;;;;8.18;82.87;100077.47;5053396;28;20675;-54
2022/11/28 10:54:18;;;;;;;11.27;9.50;;;;;;;8.21;83.88;100072.44;5072806;28;20215;-54
2022/11/28 10:56:57;;;;;;;11.63;9.07;;;;;;;8.22;83.31;100066.50;5074054;28;20189;-54
2022/11/28 10:59:37;;;;;;;10.97;8.40;;;;;;;8.17;83.02;100061.22;5073806;28;20206;-55
2022/11/28 11:02:19;;;;;;;9.70;8.07;;;;;;;8.25;83.88;100051.25;5073760;28;20661;-55
2022/11/28 11:04:46;;;;;;;9.90;9.00;;;;;;;8.31;83.91;100051.50;5061681;28;20198;-55
2022/11/28 11:07:17;;;;;;;9.83;8.83;;;;;;;8.35;84.52;100052.47;5041765;28;20202;-55
2022/11/28 11:09:45;;;;;;;9.97;8.77;;;;;;;8.39;83.83;100060.31;5033317;28;20200;-55
2022/11/28 11:12:19;;;;;;;11.20;10.10;;;;;;;8.34;84.49;100026.00;5064695;28;20598;-54
2022/11/28 11:14:47;;;;;;;10.13;8.93;;;;;;;8.53;83.42;100046.28;5072830;28;20219;-54
2022/11/28 11:17:26;;;;;;;9.77;8.77;;;;;;;8.54;84.01;100040.31;5072754;28;20191;-54
2022/11/28 11:19:53;;;;;;;10.63;9.53;;;;;;;8.56;83.38;100040.38;5040238;28;20196;-54
2022/11/28 11:22:22;;;;;;;10.40;9.33;;;;;;;8.60;83.10;100037.97;5041373;28;20200;-55
2022/11/28 11:25:05;;;;;;;11.70;10.03;;;;;;;8.65;83.46;100031.28;5052414;28;20210;-54
2022/11/28 11:27:33;;;;;;;11.77;10.57;;;;;;;8.78;83.76;100041.13;5071956;28;20923;-54
2022/11/28 11:30:15;;;;;;;10.03;9.03;;;;;;;8.82;82.81;100034.38;5071952;28;20187;-54
2022/11/28 11:32:46;;;;;;;10.67;9.57;;;;;;;8.81;81.92;100033.53;5072772;28;20199;-54
2022/11/28 11:35:20;;;;;;;12.53;10.67;;;;;;;8.58;81.81;100021.69;5072450;28;20676;-54
2022/11/28 11:37:47;;;;;;;11.67;10.47;;;;;;;8.61;81.18;100026.91;5072326;28;20189;-54